PH-0051 weather

Philippine Coast Guard Manila Ready Force Base Helipad
Manila South Harbor, Philippines

Public forecast

Using degrees Celsius for public forecast. Weather courtesy of forecast.io.

METAR (pilot weather report)

Closest report is Ninoy Aquino International Airport, 5.4 nm (9.9 km) SE. Retrieved 2019/07/20 04:00 UTC (57 minutes ago):

RPLL 200400Z 29010KT 9999 FEW025 SCT300 32/26 Q1010 NOSIG RMK A2983

TAF (pilot weather forecast)

Forecast is more than 12 hours old.

Closest forecast is Ninoy Aquino International Airport, 5.4 nm (9.9 km) SE. Retrieved 2019/07/19 00:00 UTC (1 day ago):

TAF RPLL 192300Z 2000/2106 23006KT 9999 FEW023 SCT300 TX32/2006Z TN26/2022Z TEMPO 2000/2006 18012KT SCT023 BKN300 TEMPO 2006/2012 27012KT -SHRA FEW022CB BKN100